sensor_id;sensor_type;location;lat;lon;timestamp;temperature;humidity
51035;DHT22;37062;52.546;13.230;2024-01-11T00:00:05;-3.70;99.90
51035;DHT22;37062;52.546;13.230;2024-01-11T00:02:33;-3.70;99.90
51035;DHT22;37062;52.546;13.230;2024-01-11T00:05:02;-3.80;99.90
51035;DHT22;37062;52.546;13.230;2024-01-11T00:07:30;-3.90;99.90
51035;DHT22;37062;52.546;13.230;2024-01-11T00:10:00;-4.00;99.90
51035;DHT22;37062;52.546;13.230;2024-01-11T00:12:28;-4.10;99.90
51035;DHT22;37062;52.546;13.230;2024-01-11T00:14:58;-4.10;99.90
51035;DHT22;37062;52.546;13.230;2024-01-11T00:17:26;-4.10;99.90
51035;DHT22;37062;52.546;13.230;2024-01-11T00:19:55;-4.00;99.90
51035;DHT22;37062;52.546;13.230;2024-01-11T00:22:23;-4.00;99.90
51035;DHT22;37062;52.546;13.230;2024-01-11T00:24:51;-4.00;99.90
51035;DHT22;37062;52.546;13.230;2024-01-11T00:27:19;-4.00;99.90
51035;DHT22;37062;52.546;13.230;2024-01-11T00:29:48;-3.90;99.90
51035;DHT22;37062;52.546;13.230;2024-01-11T00:32:17;-3.80;99.90
51035;DHT22;37062;52.546;13.230;2024-01-11T00:34:48;-3.90;99.90
51035;DHT22;37062;52.546;13.230;2024-01-11T00:37:16;-3.80;99.90
51035;DHT22;37062;52.546;13.230;2024-01-11T00:39:45;-3.80;99.90
51035;DHT22;37062;52.546;13.230;2024-01-11T00:42:14;-3.90;99.90
51035;DHT22;37062;52.546;13.230;2024-01-11T00:44:42;-3.80;99.90
51035;DHT22;37062;52.546;13.230;2024-01-11T00:47:12;-3.70;99.90
51035;DHT22;37062;52.546;13.230;2024-01-11T00:49:41;-3.60;99.90
51035;DHT22;37062;52.546;13.230;2024-01-11T00:52:09;-3.60;99.90
51035;DHT22;37062;52.546;13.230;2024-01-11T00:54:40;-3.60;99.90
51035;DHT22;37062;52.546;13.230;2024-01-11T00:57:08;-3.50;99.90
51035;DHT22;37062;52.546;13.230;2024-01-11T00:59:37;-3.60;99.90
51035;DHT22;37062;52.546;13.230;2024-01-11T01:02:05;-3.60;99.90
51035;DHT22;37062;52.546;13.230;2024-01-11T01:04:34;-3.60;99.90
51035;DHT22;37062;52.546;13.230;2024-01-11T01:07:06;-3.60;99.90
51035;DHT22;37062;52.546;13.230;2024-01-11T01:09:34;-3.60;99.90
51035;DHT22;37062;52.546;13.230;2024-01-11T01:12:03;-3.60;99.90
51035;DHT22;37062;52.546;13.230;2024-01-11T01:14:32;-3.60;99.90
51035;DHT22;37062;52.546;13.230;2024-01-11T01:17:00;-3.60;99.90
51035;DHT22;37062;52.546;13.230;2024-01-11T01:19:28;-3.60;99.90
51035;DHT22;37062;52.546;13.230;2024-01-11T01:21:57;-3.60;99.90
51035;DHT22;37062;52.546;13.230;2024-01-11T01:24:26;-3.50;99.90
51035;DHT22;37062;52.546;13.230;2024-01-11T01:26:55;-3.50;99.90
51035;DHT22;37062;52.546;13.230;2024-01-11T01:29:23;-3.50;99.90
51035;DHT22;37062;52.546;13.230;2024-01-11T01:31:51;-3.40;99.90
51035;DHT22;37062;52.546;13.230;2024-01-11T01:34:20;-3.40;99.90
51035;DHT22;37062;52.546;13.230;2024-01-11T01:36:48;-3.40;99.90
51035;DHT22;37062;52.546;13.230;2024-01-11T01:39:16;-3.40;99.90
51035;DHT22;37062;52.546;13.230;2024-01-11T01:41:46;-3.40;99.90
51035;DHT22;37062;52.546;13.230;2024-01-11T01:44:14;-3.40;99.90
51035;DHT22;37062;52.546;13.230;2024-01-11T01:46:43;-3.40;99.90
51035;DHT22;37062;52.546;13.230;2024-01-11T01:49:12;-3.40;99.90
51035;DHT22;37062;52.546;13.230;2024-01-11T01:51:42;-3.40;99.90
51035;DHT22;37062;52.546;13.230;2024-01-11T01:54:12;-3.30;99.90
51035;DHT22;37062;52.546;13.230;2024-01-11T01:56:40;-3.40;99.90
51035;DHT22;37062;52.546;13.230;2024-01-11T01:59:10;-3.30;99.90
51035;DHT22;37062;52.546;13.230;2024-01-11T02:01:40;-3.30;99.90
51035;DHT22;37062;52.546;13.230;2024-01-11T02:04:11;-3.40;99.90
51035;DHT22;37062;52.546;13.230;2024-01-11T02:06:41;-3.70;99.90
51035;DHT22;37062;52.546;13.230;2024-01-11T02:09:13;-3.70;99.90
51035;DHT22;37062;52.546;13.230;2024-01-11T02:11:41;-3.80;99.90
51035;DHT22;37062;52.546;13.230;2024-01-11T02:14:11;-3.70;99.90
51035;DHT22;37062;52.546;13.230;2024-01-11T02:16:40;-3.70;99.90
51035;DHT22;37062;52.546;13.230;2024-01-11T02:19:11;-3.80;99.90
51035;DHT22;37062;52.546;13.230;2024-01-11T02:21:42;-3.90;99.90
51035;DHT22;37062;52.546;13.230;2024-01-11T02:24:12;-4.00;99.90
51035;DHT22;37062;52.546;13.230;2024-01-11T02:26:59;-4.10;99.90
51035;DHT22;37062;52.546;13.230;2024-01-11T02:29:28;-4.30;99.90
51035;DHT22;37062;52.546;13.230;2024-01-11T02:31:57;-4.30;99.90
51035;DHT22;37062;52.546;13.230;2024-01-11T02:34:27;-4.10;99.90
51035;DHT22;37062;52.546;13.230;2024-01-11T02:36:56;-4.10;99.90
51035;DHT22;37062;52.546;13.230;2024-01-11T02:39:26;-4.00;99.90
51035;DHT22;37062;52.546;13.230;2024-01-11T02:41:56;-4.00;99.90
51035;DHT22;37062;52.546;13.230;2024-01-11T02:44:25;-4.00;99.90
51035;DHT22;37062;52.546;13.230;2024-01-11T02:46:54;-4.00;99.90
51035;DHT22;37062;52.546;13.230;2024-01-11T02:49:23;-3.90;99.90
51035;DHT22;37062;52.546;13.230;2024-01-11T02:51:51;-3.80;99.90
51035;DHT22;37062;52.546;13.230;2024-01-11T02:54:20;-3.80;99.90
51035;DHT22;37062;52.546;13.230;2024-01-11T02:56:49;-3.70;99.90
51035;DHT22;37062;52.546;13.230;2024-01-11T02:59:18;-3.60;99.90
51035;DHT22;37062;52.546;13.230;2024-01-11T03:01:46;-3.70;99.90
51035;DHT22;37062;52.546;13.230;2024-01-11T03:04:14;-3.70;99.90
51035;DHT22;37062;52.546;13.230;2024-01-11T03:06:43;-3.70;99.90
51035;DHT22;37062;52.546;13.230;2024-01-11T03:09:14;-3.60;99.90
51035;DHT22;37062;52.546;13.230;2024-01-11T03:11:42;-3.70;99.90
51035;DHT22;37062;52.546;13.230;2024-01-11T03:14:14;-3.80;99.90
51035;DHT22;37062;52.546;13.230;2024-01-11T03:16:43;-3.80;99.90
51035;DHT22;37062;52.546;13.230;2024-01-11T03:19:14;-3.70;99.90
51035;DHT22;37062;52.546;13.230;2024-01-11T03:21:45;-3.60;99.90
51035;DHT22;37062;52.546;13.230;2024-01-11T03:24:14;-3.40;99.90
51035;DHT22;37062;52.546;13.230;2024-01-11T03:26:42;-3.40;99.90
51035;DHT22;37062;52.546;13.230;2024-01-11T03:29:11;-3.30;99.90
51035;DHT22;37062;52.546;13.230;2024-01-11T03:31:41;-3.20;99.90
51035;DHT22;37062;52.546;13.230;2024-01-11T03:34:12;-3.20;99.90
51035;DHT22;37062;52.546;13.230;2024-01-11T03:36:41;-3.10;99.90
51035;DHT22;37062;52.546;13.230;2024-01-11T03:39:09;-3.00;99.90
51035;DHT22;37062;52.546;13.230;2024-01-11T03:41:39;-2.90;99.90
51035;DHT22;37062;52.546;13.230;2024-01-11T03:44:11;-2.80;99.90
51035;DHT22;37062;52.546;13.230;2024-01-11T03:46:41;-2.80;99.90
51035;DHT22;37062;52.546;13.230;2024-01-11T03:49:09;-2.80;99.90
51035;DHT22;37062;52.546;13.230;2024-01-11T03:51:38;-2.70;99.90
51035;DHT22;37062;52.546;13.230;2024-01-11T03:54:07;-2.70;99.90
51035;DHT22;37062;52.546;13.230;2024-01-11T03:56:37;-2.80;99.90
51035;DHT22;37062;52.546;13.230;2024-01-11T03:59:08;-2.70;99.90
51035;DHT22;37062;52.546;13.230;2024-01-11T04:01:45;-2.60;99.90
51035;DHT22;37062;52.546;13.230;2024-01-11T04:04:13;-2.60;99.90
51035;DHT22;37062;52.546;13.230;2024-01-11T04:06:42;-2.50;99.90
51035;DHT22;37062;52.546;13.230;2024-01-11T04:09:10;-2.50;99.90
51035;DHT22;37062;52.546;13.230;2024-01-11T04:11:39;-2.40;99.90
51035;DHT22;37062;52.546;13.230;2024-01-11T04:14:07;-2.40;99.90
51035;DHT22;37062;52.546;13.230;2024-01-11T04:16:40;-2.40;99.90
51035;DHT22;37062;52.546;13.230;2024-01-11T04:19:12;-2.40;99.90
51035;DHT22;37062;52.546;13.230;2024-01-11T04:21:40;-2.30;99.90
51035;DHT22;37062;52.546;13.230;2024-01-11T04:24:08;-2.30;99.90
51035;DHT22;37062;52.546;13.230;2024-01-11T04:26:40;-2.30;99.90
51035;DHT22;37062;52.546;13.230;2024-01-11T04:29:08;-2.30;99.90
51035;DHT22;37062;52.546;13.230;2024-01-11T04:31:37;-2.30;99.90
51035;DHT22;37062;52.546;13.230;2024-01-11T04:34:05;-2.20;99.90
51035;DHT22;37062;52.546;13.230;2024-01-11T04:36:37;-2.20;99.90
51035;DHT22;37062;52.546;13.230;2024-01-11T04:39:06;-2.10;99.90
51035;DHT22;37062;52.546;13.230;2024-01-11T04:41:35;-2.10;99.90
51035;DHT22;37062;52.546;13.230;2024-01-11T04:44:04;-2.10;99.90
51035;DHT22;37062;52.546;13.230;2024-01-11T04:46:35;-2.00;99.90
51035;DHT22;37062;52.546;13.230;2024-01-11T04:49:04;-1.90;99.90
51035;DHT22;37062;52.546;13.230;2024-01-11T04:51:32;-1.80;99.90
51035;DHT22;37062;52.546;13.230;2024-01-11T04:54:02;-1.70;99.90
51035;DHT22;37062;52.546;13.230;2024-01-11T04:56:29;-1.60;99.90
51035;DHT22;37062;52.546;13.230;2024-01-11T04:59:00;-1.60;99.90
51035;DHT22;37062;52.546;13.230;2024-01-11T05:01:35;-1.60;99.90
51035;DHT22;37062;52.546;13.230;2024-01-11T05:04:03;-1.60;99.90
51035;DHT22;37062;52.546;13.230;2024-01-11T05:06:31;-1.60;99.90
51035;DHT22;37062;52.546;13.230;2024-01-11T05:09:01;-1.60;99.90
51035;DHT22;37062;52.546;13.230;2024-01-11T05:11:31;-1.70;99.90
51035;DHT22;37062;52.546;13.230;2024-01-11T05:14:00;-1.70;99.90
51035;DHT22;37062;52.546;13.230;2024-01-11T05:16:29;-1.70;99.90
51035;DHT22;37062;52.546;13.230;2024-01-11T05:18:58;-1.70;99.90
51035;DHT22;37062;52.546;13.230;2024-01-11T05:21:26;-1.70;99.90
51035;DHT22;37062;52.546;13.230;2024-01-11T05:23:55;-1.70;99.90
51035;DHT22;37062;52.546;13.230;2024-01-11T05:26:25;-1.60;99.90
51035;DHT22;37062;52.546;13.230;2024-01-11T05:28:53;-1.60;99.90
51035;DHT22;37062;52.546;13.230;2024-01-11T05:31:22;-1.50;99.90
51035;DHT22;37062;52.546;13.230;2024-01-11T05:33:50;-1.50;99.90
51035;DHT22;37062;52.546;13.230;2024-01-11T05:36:19;-1.40;99.90
51035;DHT22;37062;52.546;13.230;2024-01-11T05:38:48;-1.40;99.90
51035;DHT22;37062;52.546;13.230;2024-01-11T05:41:16;-1.40;99.90
51035;DHT22;37062;52.546;13.230;2024-01-11T05:43:46;-1.30;99.90
51035;DHT22;37062;52.546;13.230;2024-01-11T05:46:14;-1.30;99.90
51035;DHT22;37062;52.546;13.230;2024-01-11T05:48:45;-1.30;99.90
51035;DHT22;37062;52.546;13.230;2024-01-11T05:51:13;-1.20;99.90
51035;DHT22;37062;52.546;13.230;2024-01-11T05:53:41;-1.20;99.90
51035;DHT22;37062;52.546;13.230;2024-01-11T05:56:10;-1.20;99.90
51035;DHT22;37062;52.546;13.230;2024-01-11T05:58:39;-1.20;99.90
51035;DHT22;37062;52.546;13.230;2024-01-11T06:01:09;-1.20;99.90
51035;DHT22;37062;52.546;13.230;2024-01-11T06:03:38;-1.10;99.90
51035;DHT22;37062;52.546;13.230;2024-01-11T06:06:07;-1.10;99.90
51035;DHT22;37062;52.546;13.230;2024-01-11T06:08:36;-1.10;99.90
51035;DHT22;37062;52.546;13.230;2024-01-11T06:11:05;-1.00;99.90
51035;DHT22;37062;52.546;13.230;2024-01-11T06:13:35;-1.10;99.90
51035;DHT22;37062;52.546;13.230;2024-01-11T06:16:03;-1.10;99.90
51035;DHT22;37062;52.546;13.230;2024-01-11T06:18:38;-1.10;99.90
51035;DHT22;37062;52.546;13.230;2024-01-11T06:21:06;-1.00;99.90
51035;DHT22;37062;52.546;13.230;2024-01-11T06:23:34;-1.00;99.90
51035;DHT22;37062;52.546;13.230;2024-01-11T06:26:03;-1.00;99.90
51035;DHT22;37062;52.546;13.230;2024-01-11T06:28:31;-0.90;99.90
51035;DHT22;37062;52.546;13.230;2024-01-11T06:31:02;-0.80;99.90
51035;DHT22;37062;52.546;13.230;2024-01-11T06:33:31;-0.80;99.90
51035;DHT22;37062;52.546;13.230;2024-01-11T06:36:06;-0.80;99.90
51035;DHT22;37062;52.546;13.230;2024-01-11T06:38:38;-0.70;99.90
51035;DHT22;37062;52.546;13.230;2024-01-11T06:41:06;-0.60;99.90
51035;DHT22;37062;52.546;13.230;2024-01-11T06:43:35;-0.60;99.90
51035;DHT22;37062;52.546;13.230;2024-01-11T06:46:03;-0.60;99.90
51035;DHT22;37062;52.546;13.230;2024-01-11T06:48:32;-0.60;99.90
51035;DHT22;37062;52.546;13.230;2024-01-11T06:51:01;-0.50;99.90
51035;DHT22;37062;52.546;13.230;2024-01-11T06:53:31;-0.50;99.90
51035;DHT22;37062;52.546;13.230;2024-01-11T06:55:59;-0.50;99.90
51035;DHT22;37062;52.546;13.230;2024-01-11T06:58:27;-0.50;99.90
51035;DHT22;37062;52.546;13.230;2024-01-11T07:00:55;-0.50;99.90
51035;DHT22;37062;52.546;13.230;2024-01-11T07:03:24;-0.50;99.90
51035;DHT22;37062;52.546;13.230;2024-01-11T07:05:52;-0.50;99.90
51035;DHT22;37062;52.546;13.230;2024-01-11T07:08:21;-0.40;99.90
51035;DHT22;37062;52.546;13.230;2024-01-11T07:10:51;-0.50;99.90
51035;DHT22;37062;52.546;13.230;2024-01-11T07:13:19;-0.50;99.90
51035;DHT22;37062;52.546;13.230;2024-01-11T07:15:47;-0.60;99.90
51035;DHT22;37062;52.546;13.230;2024-01-11T07:18:16;-0.60;99.90
51035;DHT22;37062;52.546;13.230;2024-01-11T07:20:47;-0.50;99.90
51035;DHT22;37062;52.546;13.230;2024-01-11T07:23:17;-0.50;99.90
51035;DHT22;37062;52.546;13.230;2024-01-11T07:25:46;-0.40;99.90
51035;DHT22;37062;52.546;13.230;2024-01-11T07:28:15;-0.40;99.90
51035;DHT22;37062;52.546;13.230;2024-01-11T07:30:46;-0.40;99.90
51035;DHT22;37062;52.546;13.230;2024-01-11T07:33:14;-0.40;99.90
51035;DHT22;37062;52.546;13.230;2024-01-11T07:35:43;-0.40;99.90
51035;DHT22;37062;52.546;13.230;2024-01-11T07:38:13;-0.40;99.90
51035;DHT22;37062;52.546;13.230;2024-01-11T07:40:41;-0.40;99.90
51035;DHT22;37062;52.546;13.230;2024-01-11T07:43:10;-0.40;99.90
51035;DHT22;37062;52.546;13.230;2024-01-11T07:45:40;-0.30;99.90
51035;DHT22;37062;52.546;13.230;2024-01-11T07:48:09;-0.30;99.90
51035;DHT22;37062;52.546;13.230;2024-01-11T07:50:37;-0.30;99.90
51035;DHT22;37062;52.546;13.230;2024-01-11T07:53:06;-0.30;99.90
51035;DHT22;37062;52.546;13.230;2024-01-11T07:55:34;-0.30;99.90
51035;DHT22;37062;52.546;13.230;2024-01-11T07:58:04;-0.30;99.90
51035;DHT22;37062;52.546;13.230;2024-01-11T08:00:32;-0.30;99.90
51035;DHT22;37062;52.546;13.230;2024-01-11T08:03:03;-0.30;99.90
51035;DHT22;37062;52.546;13.230;2024-01-11T08:05:34;-0.30;99.90
51035;DHT22;37062;52.546;13.230;2024-01-11T08:08:03;-0.30;99.90
51035;DHT22;37062;52.546;13.230;2024-01-11T08:10:58;-0.20;99.90
51035;DHT22;37062;52.546;13.230;2024-01-11T08:16:54;-0.20;99.90
51035;DHT22;37062;52.546;13.230;2024-01-11T08:19:27;-0.20;99.90
51035;DHT22;37062;52.546;13.230;2024-01-11T08:21:55;-0.10;99.90
51035;DHT22;37062;52.546;13.230;2024-01-11T08:24:23;-0.10;99.90
51035;DHT22;37062;52.546;13.230;2024-01-11T08:26:52;-0.10;99.90
51035;DHT22;37062;52.546;13.230;2024-01-11T08:29:21;0.00;99.90
51035;DHT22;37062;52.546;13.230;2024-01-11T08:31:50;0.00;99.90
51035;DHT22;37062;52.546;13.230;2024-01-11T08:34:18;0.00;99.90
51035;DHT22;37062;52.546;13.230;2024-01-11T08:36:49;0.10;99.90
51035;DHT22;37062;52.546;13.230;2024-01-11T08:39:17;0.10;99.90
51035;DHT22;37062;52.546;13.230;2024-01-11T08:41:50;0.10;99.90
51035;DHT22;37062;52.546;13.230;2024-01-11T08:44:19;0.20;99.90
51035;DHT22;37062;52.546;13.230;2024-01-11T08:46:51;0.20;99.90
51035;DHT22;37062;52.546;13.230;2024-01-11T08:49:19;0.30;99.90
51035;DHT22;37062;52.546;13.230;2024-01-11T08:51:49;0.30;99.90
51035;DHT22;37062;52.546;13.230;2024-01-11T08:54:20;0.30;99.90
51035;DHT22;37062;52.546;13.230;2024-01-11T08:56:48;0.40;99.90
51035;DHT22;37062;52.546;13.230;2024-01-11T08:59:19;0.40;99.90
51035;DHT22;37062;52.546;13.230;2024-01-11T09:01:52;0.50;99.90
51035;DHT22;37062;52.546;13.230;2024-01-11T09:04:39;0.50;99.90
51035;DHT22;37062;52.546;13.230;2024-01-11T09:07:11;0.60;99.90
51035;DHT22;37062;52.546;13.230;2024-01-11T09:09:40;0.70;99.90
51035;DHT22;37062;52.546;13.230;2024-01-11T09:12:19;0.80;99.90
51035;DHT22;37062;52.546;13.230;2024-01-11T09:14:48;0.80;99.90
51035;DHT22;37062;52.546;13.230;2024-01-11T09:17:20;0.90;99.90
51035;DHT22;37062;52.546;13.230;2024-01-11T09:19:52;1.00;99.90
51035;DHT22;37062;52.546;13.230;2024-01-11T09:22:22;1.00;99.90
51035;DHT22;37062;52.546;13.230;2024-01-11T09:24:53;1.00;99.90
51035;DHT22;37062;52.546;13.230;2024-01-11T09:27:22;1.10;99.90
51035;DHT22;37062;52.546;13.230;2024-01-11T09:29:53;1.00;99.90
51035;DHT22;37062;52.546;13.230;2024-01-11T09:32:23;1.00;99.90
51035;DHT22;37062;52.546;13.230;2024-01-11T09:34:55;1.00;99.90
51035;DHT22;37062;52.546;13.230;2024-01-11T09:37:31;1.00;99.90
51035;DHT22;37062;52.546;13.230;2024-01-11T09:40:00;1.00;99.90
51035;DHT22;37062;52.546;13.230;2024-01-11T09:42:34;1.00;99.90
51035;DHT22;37062;52.546;13.230;2024-01-11T09:45:05;1.00;99.90
51035;DHT22;37062;52.546;13.230;2024-01-11T09:47:39;1.00;99.90
51035;DHT22;37062;52.546;13.230;2024-01-11T09:50:11;1.10;99.90
51035;DHT22;37062;52.546;13.230;2024-01-11T09:52:47;1.00;99.90
51035;DHT22;37062;52.546;13.230;2024-01-11T09:55:16;1.10;99.90
51035;DHT22;37062;52.546;13.230;2024-01-11T09:57:45;1.10;99.90
51035;DHT22;37062;52.546;13.230;2024-01-11T10:00:25;1.10;99.90
51035;DHT22;37062;52.546;13.230;2024-01-11T10:02:53;1.00;99.90
51035;DHT22;37062;52.546;13.230;2024-01-11T10:05:22;1.10;99.90
51035;DHT22;37062;52.546;13.230;2024-01-11T10:07:52;1.00;99.90
51035;DHT22;37062;52.546;13.230;2024-01-11T10:10:21;1.00;99.90
51035;DHT22;37062;52.546;13.230;2024-01-11T10:12:49;1.00;99.90
51035;DHT22;37062;52.546;13.230;2024-01-11T10:15:18;1.00;99.90
51035;DHT22;37062;52.546;13.230;2024-01-11T10:17:46;1.10;99.90
51035;DHT22;37062;52.546;13.230;2024-01-11T10:20:15;1.20;99.90
51035;DHT22;37062;52.546;13.230;2024-01-11T10:22:46;1.30;99.90
51035;DHT22;37062;52.546;13.230;2024-01-11T10:25:17;1.40;99.90
51035;DHT22;37062;52.546;13.230;2024-01-11T10:27:46;1.40;99.90
51035;DHT22;37062;52.546;13.230;2024-01-11T10:30:15;1.40;99.90
51035;DHT22;37062;52.546;13.230;2024-01-11T10:32:45;1.40;99.90
51035;DHT22;37062;52.546;13.230;2024-01-11T10:35:14;1.40;99.90
51035;DHT22;37062;52.546;13.230;2024-01-11T10:37:45;1.40;99.90
51035;DHT22;37062;52.546;13.230;2024-01-11T10:40:17;1.50;99.90
51035;DHT22;37062;52.546;13.230;2024-01-11T10:42:53;1.50;99.90
51035;DHT22;37062;52.546;13.230;2024-01-11T10:45:27;1.50;99.90
51035;DHT22;37062;52.546;13.230;2024-01-11T10:48:01;1.50;99.90
51035;DHT22;37062;52.546;13.230;2024-01-11T10:50:35;1.50;99.90
51035;DHT22;37062;52.546;13.230;2024-01-11T10:53:25;1.50;99.90
51035;DHT22;37062;52.546;13.230;2024-01-11T10:55:59;1.60;99.90
51035;DHT22;37062;52.546;13.230;2024-01-11T10:58:28;1.60;99.90
51035;DHT22;37062;52.546;13.230;2024-01-11T11:00:59;1.60;99.90
51035;DHT22;37062;52.546;13.230;2024-01-11T11:03:30;1.70;99.90
51035;DHT22;37062;52.546;13.230;2024-01-11T11:06:00;1.80;99.90
51035;DHT22;37062;52.546;13.230;2024-01-11T11:08:29;1.80;99.90
51035;DHT22;37062;52.546;13.230;2024-01-11T11:11:01;1.80;99.90
51035;DHT22;37062;52.546;13.230;2024-01-11T11:13:32;1.80;99.90
51035;DHT22;37062;52.546;13.230;2024-01-11T11:16:04;1.90;99.90
51035;DHT22;37062;52.546;13.230;2024-01-11T11:18:41;2.00;99.90
51035;DHT22;37062;52.546;13.230;2024-01-11T11:21:10;2.00;99.90
51035;DHT22;37062;52.546;13.230;2024-01-11T11:23:39;1.90;99.90
51035;DHT22;37062;52.546;13.230;2024-01-11T11:26:14;1.80;99.90
51035;DHT22;37062;52.546;13.230;2024-01-11T11:28:43;1.70;99.90
51035;DHT22;37062;52.546;13.230;2024-01-11T11:31:11;1.70;99.90
51035;DHT22;37062;52.546;13.230;2024-01-11T11:33:40;1.40;99.90
51035;DHT22;37062;52.546;13.230;2024-01-11T11:36:12;1.30;99.90
51035;DHT22;37062;52.546;13.230;2024-01-11T11:38:41;1.40;99.90
51035;DHT22;37062;52.546;13.230;2024-01-11T11:41:11;1.50;99.90
51035;DHT22;37062;52.546;13.230;2024-01-11T11:43:40;1.40;99.90
51035;DHT22;37062;52.546;13.230;2024-01-11T11:46:08;1.40;99.90
51035;DHT22;37062;52.546;13.230;2024-01-11T11:48:52;1.50;99.90
51035;DHT22;37062;52.546;13.230;2024-01-11T11:51:22;1.70;99.90
51035;DHT22;37062;52.546;13.230;2024-01-11T11:53:54;1.80;99.90
51035;DHT22;37062;52.546;13.230;2024-01-11T11:56:25;1.80;99.90
51035;DHT22;37062;52.546;13.230;2024-01-11T11:58:53;1.80;99.90
51035;DHT22;37062;52.546;13.230;2024-01-11T12:01:22;1.90;99.90
51035;DHT22;37062;52.546;13.230;2024-01-11T12:03:52;1.90;99.90
51035;DHT22;37062;52.546;13.230;2024-01-11T12:06:21;1.90;99.90
51035;DHT22;37062;52.546;13.230;2024-01-11T12:08:53;1.90;99.90
51035;DHT22;37062;52.546;13.230;2024-01-11T12:11:25;2.00;99.90
51035;DHT22;37062;52.546;13.230;2024-01-11T12:13:54;2.10;99.90
51035;DHT22;37062;52.546;13.230;2024-01-11T12:16:24;2.10;99.90
51035;DHT22;37062;52.546;13.230;2024-01-11T12:18:53;2.20;99.90
51035;DHT22;37062;52.546;13.230;2024-01-11T12:21:22;2.10;99.90
51035;DHT22;37062;52.546;13.230;2024-01-11T12:23:50;2.20;99.90
51035;DHT22;37062;52.546;13.230;2024-01-11T12:26:19;2.40;99.90
51035;DHT22;37062;52.546;13.230;2024-01-11T12:28:51;2.40;99.90
51035;DHT22;37062;52.546;13.230;2024-01-11T12:31:21;2.40;99.90
51035;DHT22;37062;52.546;13.230;2024-01-11T12:33:50;2.50;99.90
51035;DHT22;37062;52.546;13.230;2024-01-11T12:36:19;2.60;99.90
51035;DHT22;37062;52.546;13.230;2024-01-11T12:38:47;2.60;99.90
51035;DHT22;37062;52.546;13.230;2024-01-11T12:41:21;2.60;99.90
51035;DHT22;37062;52.546;13.230;2024-01-11T12:43:52;2.60;99.90
51035;DHT22;37062;52.546;13.230;2024-01-11T12:46:20;2.70;99.90
51035;DHT22;37062;52.546;13.230;2024-01-11T12:48:50;2.80;99.90
51035;DHT22;37062;52.546;13.230;2024-01-11T12:51:20;2.80;99.90
51035;DHT22;37062;52.546;13.230;2024-01-11T12:53:51;2.90;99.90
51035;DHT22;37062;52.546;13.230;2024-01-11T12:56:20;2.90;99.90
51035;DHT22;37062;52.546;13.230;2024-01-11T12:58:51;3.00;99.90
51035;DHT22;37062;52.546;13.230;2024-01-11T13:01:33;3.00;99.90
51035;DHT22;37062;52.546;13.230;2024-01-11T13:04:01;3.00;99.90
51035;DHT22;37062;52.546;13.230;2024-01-11T13:06:34;3.00;99.90
51035;DHT22;37062;52.546;13.230;2024-01-11T13:09:03;3.10;99.90
51035;DHT22;37062;52.546;13.230;2024-01-11T13:11:31;3.10;99.90
51035;DHT22;37062;52.546;13.230;2024-01-11T13:14:01;3.10;99.90
51035;DHT22;37062;52.546;13.230;2024-01-11T13:16:33;3.10;99.90
51035;DHT22;37062;52.546;13.230;2024-01-11T13:19:02;3.10;99.90
51035;DHT22;37062;52.546;13.230;2024-01-11T13:21:46;3.10;99.90
51035;DHT22;37062;52.546;13.230;2024-01-11T13:24:14;3.10;99.90
51035;DHT22;37062;52.546;13.230;2024-01-11T13:26:42;3.10;99.90
51035;DHT22;37062;52.546;13.230;2024-01-11T13:29:12;3.00;99.90
51035;DHT22;37062;52.546;13.230;2024-01-11T13:31:40;2.90;99.90
51035;DHT22;37062;52.546;13.230;2024-01-11T13:34:08;2.80;99.90
51035;DHT22;37062;52.546;13.230;2024-01-11T13:36:37;2.70;99.90
51035;DHT22;37062;52.546;13.230;2024-01-11T13:39:05;2.60;99.90
51035;DHT22;37062;52.546;13.230;2024-01-11T13:41:35;2.70;99.90
51035;DHT22;37062;52.546;13.230;2024-01-11T13:44:03;2.70;99.90
51035;DHT22;37062;52.546;13.230;2024-01-11T13:46:34;2.70;99.90
51035;DHT22;37062;52.546;13.230;2024-01-11T13:49:02;2.60;99.90
51035;DHT22;37062;52.546;13.230;2024-01-11T13:51:31;2.50;99.90
51035;DHT22;37062;52.546;13.230;2024-01-11T13:54:12;2.50;99.90
51035;DHT22;37062;52.546;13.230;2024-01-11T13:56:40;2.40;99.90
51035;DHT22;37062;52.546;13.230;2024-01-11T13:59:09;2.40;99.90
51035;DHT22;37062;52.546;13.230;2024-01-11T14:01:38;2.40;99.90
51035;DHT22;37062;52.546;13.230;2024-01-11T14:04:07;2.40;99.90
51035;DHT22;37062;52.546;13.230;2024-01-11T14:06:35;2.30;99.90
51035;DHT22;37062;52.546;13.230;2024-01-11T14:09:04;2.50;99.90
51035;DHT22;37062;52.546;13.230;2024-01-11T14:11:36;2.50;99.90
51035;DHT22;37062;52.546;13.230;2024-01-11T14:14:04;2.50;99.90
51035;DHT22;37062;52.546;13.230;2024-01-11T14:16:32;2.50;99.90
51035;DHT22;37062;52.546;13.230;2024-01-11T14:19:02;2.50;99.90
51035;DHT22;37062;52.546;13.230;2024-01-11T14:21:30;2.40;99.90
51035;DHT22;37062;52.546;13.230;2024-01-11T14:23:59;2.40;99.90
51035;DHT22;37062;52.546;13.230;2024-01-11T14:26:27;2.40;99.90
51035;DHT22;37062;52.546;13.230;2024-01-11T14:28:55;2.30;99.90
51035;DHT22;37062;52.546;13.230;2024-01-11T14:31:23;2.40;99.90
51035;DHT22;37062;52.546;13.230;2024-01-11T14:33:52;2.20;99.90
51035;DHT22;37062;52.546;13.230;2024-01-11T14:36:22;2.20;99.90
51035;DHT22;37062;52.546;13.230;2024-01-11T14:38:50;2.20;99.90
51035;DHT22;37062;52.546;13.230;2024-01-11T14:41:19;2.20;99.90
51035;DHT22;37062;52.546;13.230;2024-01-11T14:43:47;2.10;99.90
51035;DHT22;37062;52.546;13.230;2024-01-11T14:46:15;2.10;99.90
51035;DHT22;37062;52.546;13.230;2024-01-11T14:48:44;2.20;99.90
51035;DHT22;37062;52.546;13.230;2024-01-11T14:51:15;2.30;99.90
51035;DHT22;37062;52.546;13.230;2024-01-11T14:53:44;2.40;99.90
51035;DHT22;37062;52.546;13.230;2024-01-11T14:56:13;2.40;99.90
51035;DHT22;37062;52.546;13.230;2024-01-11T14:58:41;2.40;99.90
51035;DHT22;37062;52.546;13.230;2024-01-11T15:01:09;2.40;99.90
51035;DHT22;37062;52.546;13.230;2024-01-11T15:03:39;2.40;99.90
51035;DHT22;37062;52.546;13.230;2024-01-11T15:06:07;2.30;99.90
51035;DHT22;37062;52.546;13.230;2024-01-11T15:08:36;2.40;99.90
51035;DHT22;37062;52.546;13.230;2024-01-11T15:11:06;2.50;99.90
51035;DHT22;37062;52.546;13.230;2024-01-11T15:13:36;2.50;99.90
51035;DHT22;37062;52.546;13.230;2024-01-11T15:16:04;2.40;99.90
51035;DHT22;37062;52.546;13.230;2024-01-11T15:18:33;2.50;99.90
51035;DHT22;37062;52.546;13.230;2024-01-11T15:21:02;2.40;99.90
51035;DHT22;37062;52.546;13.230;2024-01-11T15:23:30;2.30;99.90
51035;DHT22;37062;52.546;13.230;2024-01-11T15:25:59;2.30;99.90
51035;DHT22;37062;52.546;13.230;2024-01-11T15:28:30;2.20;99.90
51035;DHT22;37062;52.546;13.230;2024-01-11T15:30:58;2.20;99.90
51035;DHT22;37062;52.546;13.230;2024-01-11T15:33:26;2.20;99.90
51035;DHT22;37062;52.546;13.230;2024-01-11T15:35:55;2.30;99.90
51035;DHT22;37062;52.546;13.230;2024-01-11T15:38:23;2.30;99.90
51035;DHT22;37062;52.546;13.230;2024-01-11T15:40:52;2.30;99.90